Latest Weather Observations for Kanagulk

IDV60801

Issued at 7:02 pm EDT Thursday 21 February 2019 (issued every 10 minutes, with the page automatically refreshed every 10 minutes)

About weather observations | Map of weather stations | Latest weather observations for VIC | Other Formats
Station Details ID: 079097 Name: KANAGULK Lat: -37.12 Lon: 141.80 Height: 188.8 m
Data from the previous 72 hours. | See also: Recent months at Kanagulk
Date/Time
EDT
Temp
°C
App
Temp
°C
Dew
Point
°C
Rel
Hum
%
Delta-T
°C
Wind Press
QNH
hPa
Press
MSL
hPa
Rain since
9am
mm
Dir  Spd
km/h
Gust
km/h
Spd
kts
Gust
kts
21/07:00pm 22.9 18.1 7.4 37 8.1 S 22 32 12 17 1020.1 1019.4 0.0
21/06:30pm 23.5 18.7 7.2 35 8.6 S 22 39 12 21 1020.0 1019.3 0.0
21/06:00pm 23.9 19.9 6.7 33 8.9 S 17 26 9 14 1019.8 1019.1 0.0
21/05:30pm 24.1 19.8 6.8 33 9.0 S 19 28 10 15 1019.8 1019.1 0.0
21/05:00pm 24.4 20.0 6.6 32 9.3 SSE 19 28 10 15 1019.8 1019.1 0.0
21/04:30pm 24.0 19.4 6.7 33 9.0 S 20 33 11 18 1020.0 1019.3 0.0
21/04:00pm 23.5 19.0 6.3 33 8.9 SSE 19 28 10 15 1020.2 1019.5 0.0
21/03:30pm 23.8 20.0 7.4 35 8.7 S 17 26 9 14 1020.4 1019.7 0.0
21/03:00pm 23.4 18.5 7.1 35 8.5 SSE 22 35 12 19 1020.7 1020.0 0.0
21/02:30pm 22.3 18.0 6.9 37 8.0 SSW 19 26 10 14 1021.0 1020.4 0.0
21/02:00pm 22.8 18.3 7.0 36 8.2 S 20 28 11 15 1020.9 1020.3 0.0
21/01:30pm 21.7 17.4 7.2 39 7.5 S 19 30 10 16 1021.1 1020.5 0.0
21/01:00pm 21.7 17.5 7.5 40 7.4 SSE 19 26 10 14 1021.4 1020.8 0.0
21/12:30pm 21.8 18.2 8.3 42 7.2 SSE 17 30 9 16 1021.5 1020.9 0.0
21/12:00pm 20.3 16.6 8.0 45 6.4 SSE 17 32 9 17 1021.7 1021.1 0.0
21/11:30am 18.8 14.7 7.9 49 5.6 SSE 19 26 10 14 1021.8 1021.2 0.0
21/11:00am 18.3 13.6 7.7 50 5.4 S 22 32 12 17 1021.8 1021.2 0.0
21/10:30am 17.4 12.8 8.3 55 4.7 S 22 33 12 18 1021.7 1021.1 0.0
21/10:00am 16.6 12.5 8.6 59 4.1 S 20 28 11 15 1021.5 1020.9 0.0
21/09:30am 15.9 12.8 8.9 63 3.6 S 15 22 8 12 1021.2 1020.6 0.0
21/09:00am 14.7 12.2 9.7 72 2.6 SSW 13 20 7 11 1021.1 1020.5 0.0
21/08:30am 13.0 11.8 11.6 91 0.8 S 9 15 5 8 1020.7 1020.0 0.0
21/08:00am 11.1 9.8 11.1 100 0.0 S 9 13 5 7 1020.5 1019.8 0.0
21/07:30am 9.2 7.3 9.2 100 0.0 SSW 9 15 5 8 1019.9 1019.2 0.0
21/07:00am 8.5 6.8 8.5 100 0.0 SW 7 9 4 5 1019.5 1018.8 0.0
21/06:30am 8.8 7.2 8.8 100 0.0 SW 7 9 4 5 1019.3 1018.6 0.0
21/06:00am 8.3 6.6 8.2 99 0.0 SW 7 9 4 5 1019.2 1018.5 0.0
21/05:30am 9.1 7.6 9.0 99 0.0 SW 7 9 4 5 1019.0 1018.3 0.0
21/05:00am 9.3 7.8 9.2 99 0.0 SW 7 9 4 5 1018.8 1018.1 0.0
21/04:30am 9.4 8.1 9.3 99 0.0 S 6 7 3 4 1018.8 1018.1 0.0
21/04:00am 9.3 7.8 9.2 99 0.0 S 7 9 4 5 1018.4 1017.8 0.0
21/03:30am 9.7 8.3 9.6 99 0.1 S 7 7 4 4 1018.5 1017.9 0.0
21/03:00am 10.8 9.3 10.6 99 0.1 S 9 11 5 6 1018.5 1017.9 0.0
21/02:30am 11.2 9.7 10.6 96 0.3 S 9 11 5 6 1018.5 1017.9 0.0
21/02:00am 11.5 9.7 10.7 95 0.4 S 11 13 6 7 1018.8 1018.1 0.0
21/01:30am 12.0 10.5 10.6 91 0.7 SSW 9 13 5 7 1019.2 1018.5 0.0
21/01:00am 12.3 10.8 10.5 89 0.9 SSW 9 13 5 7 1019.0 1018.3 0.0
21/12:30am 13.0 10.9 11.1 88 1.0 SSW 13 17 7 9 1018.9 1018.2 0.0
21/12:00am 13.1 11.3 11.0 87 1.1 S 11 15 6 8 1018.9 1018.2 0.0
 
Date/Time
EDT
Temp
°C
App
Temp
°C
Dew
Point
°C
Rel
Hum
%
Delta-T
°C
Wind Press
QNH
hPa
Press
MSL
hPa
Rain since
9am
mm
Dir  Spd
km/h
Gust
km/h
Spd
kts
Gust
kts
20/11:30pm 13.6 11.4 10.8 83 1.5 S 13 15 7 8 1019.0 1018.3 0.0
20/11:00pm 14.3 11.8 10.9 80 1.8 S 15 22 8 12 1019.0 1018.3 0.0
20/10:30pm 14.7 12.8 10.5 76 2.2 S 11 15 6 8 1018.6 1018.0 0.0
20/10:00pm 15.8 12.8 10.8 72 2.7 S 17 26 9 14 1018.2 1017.6 0.0
20/09:30pm 16.5 13.6 9.7 64 3.6 SSW 15 22 8 12 1017.8 1017.2 0.0
20/09:00pm 17.3 14.2 8.7 57 4.5 SSW 15 24 8 13 1017.5 1016.9 0.0
20/08:30pm 18.0 14.7 8.0 52 5.2 SW 15 22 8 12 1017.1 1016.5 0.0
20/08:00pm 19.2 15.5 7.9 48 5.8 SW 17 28 9 15 1016.7 1016.1 0.0
20/07:30pm 20.4 17.0 9.0 48 6.1 SW 17 35 9 19 1016.4 1015.8 0.0
20/07:00pm 21.8 17.7 8.0 41 7.3 SW 19 30 10 16 1016.1 1015.4 0.0
20/06:30pm 20.9 17.1 9.8 49 6.0 SSW 20 35 11 19 1015.8 1015.1 0.0
20/06:00pm 21.4 18.1 10.9 51 5.8 SW 19 35 10 19 1015.6 1014.9 0.0
20/05:30pm 23.6 19.9 10.3 43 7.4 SW 20 35 11 19 1015.3 1014.6 0.0
20/05:00pm 23.9 20.6 9.5 40 7.9 WSW 17 32 9 17 1015.1 1014.4 0.0
20/04:30pm 22.8 19.6 9.9 44 7.1 WSW 17 30 9 16 1015.2 1014.5 0.0
20/04:00pm 25.2 21.4 9.9 38 8.5 SW 20 33 11 18 1015.4 1014.7 0.0
20/03:30pm 23.6 20.3 9.6 41 7.7 WSW 17 26 9 14 1015.6 1014.9 0.0
20/03:00pm 23.0 20.2 10.1 44 7.1 WSW 15 26 8 14 1015.8 1015.1 0.0
20/02:30pm 23.1 19.9 9.8 43 7.3 WSW 17 28 9 15 1015.9 1015.2 0.0
20/02:00pm 22.7 19.1 9.8 44 7.1 SW 19 30 10 16 1015.9 1015.2 0.0
20/01:30pm 22.5 19.6 9.6 44 7.0 SW 15 30 8 16 1016.0 1015.3 0.0
20/01:00pm 20.7 17.4 9.6 49 6.0 SW 17 28 9 15 1016.5 1015.9 0.0
20/12:30pm 19.9 16.7 9.8 52 5.4 SW 17 30 9 16 1016.8 1016.2 0.0
20/12:00pm 19.2 15.5 9.4 53 5.2 SW 19 32 10 17 1017.1 1016.5 0.0
20/11:30am 18.1 14.8 9.5 57 4.6 WSW 17 28 9 15 1017.3 1016.7 0.0
20/11:00am 17.5 14.9 9.4 59 4.3 WSW 13 26 7 14 1017.2 1016.6 0.0
20/10:30am 16.7 13.8 9.6 63 3.7 WSW 15 24 8 13 1017.2 1016.6 0.0
20/10:00am 16.7 14.1 9.4 62 3.8 WSW 13 20 7 11 1017.1 1016.5 0.0
20/09:30am 15.6 13.5 9.7 68 3.1 WSW 11 20 6 11 1017.0 1016.4 0.0
20/09:00am 14.8 13.0 9.4 70 2.8 W 9 13 5 7 1016.7 1016.1 0.0
20/08:30am 13.8 11.8 8.6 71 2.6 W 9 13 5 7 1016.4 1015.8 0.0
20/08:00am 13.3 11.8 8.6 73 2.4 WNW 6 9 3 5 1016.2 1015.6 0.0
20/07:30am 11.8 11.5 8.5 80 1.6 CALM 0 6 0 3 1016.0 1015.3 0.0
20/07:00am 11.6 11.2 8.3 80 1.6 CALM 0 0 0 0 1015.8 1015.1 0.0
20/06:30am 11.4 11.0 8.3 81 1.5 CALM 0 0 0 0 1015.7 1015.0 0.0
20/06:00am 10.9 10.4 7.8 81 1.5 CALM 0 0 0 0 1015.7 1015.0 0.0
20/05:30am 10.8 10.3 7.7 81 1.5 CALM 0 6 0 3 1015.5 1014.8 0.0
20/05:00am 10.6 10.1 7.7 82 1.4 CALM 0 0 0 0 1015.4 1014.7 0.0
20/04:30am 10.1 9.2 7.9 86 1.1 W 2 15 1 8 1015.5 1014.8 0.0
20/04:00am 8.9 7.6 7.5 91 0.7 SW 4 7 2 4 1015.5 1014.8 0.0
20/03:30am 7.7 6.8 6.0 89 0.8 CALM 0 0 0 0 1015.6 1014.9 0.0
20/03:00am 7.5 6.5 5.6 88 0.9 CALM 0 7 0 4 1015.7 1015.0 0.0
20/02:30am 8.1 7.2 5.9 86 1.0 CALM 0 0 0 0 1015.8 1015.1 0.0
20/02:00am 8.7 7.7 5.4 80 1.5 CALM 0 0 0 0 1015.9 1015.2 0.0
20/01:30am 9.3 8.2 5.3 76 1.8 CALM 0 0 0 0 1016.2 1015.6 0.0
20/01:00am 10.1 8.7 5.5 73 2.1 SW 2 6 1 3 1016.5 1015.9 0.0
20/12:30am 10.8 8.5 5.6 70 2.4 SW 7 9 4 5 1016.5 1015.9 0.0
20/12:00am 11.2 8.8 5.3 67 2.7 SW 7 9 4 5 1016.5 1015.9 0.0
 
Date/Time
EDT
Temp
°C
App
Temp
°C
Dew
Point
°C
Rel
Hum
%
Delta-T
°C
Wind Press
QNH
hPa
Press
MSL
hPa
Rain since
9am
mm
Dir  Spd
km/h
Gust
km/h
Spd
kts
Gust
kts
19/11:30pm 12.7 10.4 5.8 63 3.3 SSW 7 9 4 5 1016.4 1015.8 0.0
19/11:00pm 13.3 10.6 5.7 60 3.6 SSW 9 13 5 7 1016.4 1015.8 0.0
19/10:30pm 14.0 11.0 5.9 58 3.9 SW 11 17 6 9 1016.1 1015.4 0.0
19/10:00pm 14.9 11.5 5.7 54 4.4 SSW 13 19 7 10 1015.6 1014.9 0.0
19/09:30pm 15.6 11.7 5.5 51 4.9 SSW 15 22 8 12 1015.1 1014.4 0.0
19/09:00pm 16.3 12.5 5.6 49 5.2 SW 15 24 8 13 1015.0 1014.3 0.0
19/08:30pm 17.3 13.8 5.6 46 5.7 SSW 13 24 7 13 1014.6 1013.9 0.0
19/08:00pm 18.2 13.6 5.8 44 6.1 SSW 19 28 10 15 1014.3 1013.6 0.0
19/07:30pm 19.5 15.3 5.9 41 6.8 SW 17 26 9 14 1013.8 1013.1 0.0
19/07:00pm 20.4 16.2 5.6 38 7.4 SW 17 26 9 14 1013.6 1012.9 0.0
19/06:30pm 21.9 17.9 4.9 33 8.5 SW 15 24 8 13 1013.3 1012.6 0.0
19/06:00pm 22.3 18.4 5.3 33 8.6 SW 15 24 8 13 1013.4 1012.7 0.0
19/05:30pm 21.4 17.0 4.9 34 8.2 WSW 17 28 9 15 1013.5 1012.8 0.0
19/05:00pm 20.8 17.3 5.6 37 7.6 SW 13 20 7 11 1013.4 1012.7 0.0
19/04:30pm 21.4 16.8 5.7 36 7.9 SSW 19 33 10 18 1013.3 1012.6 0.0
19/04:00pm 21.5 18.0 7.0 39 7.5 WSW 15 22 8 12 1013.5 1012.8 0.0
19/03:30pm 22.7 18.6 6.0 34 8.5 WSW 17 32 9 17 1013.8 1013.1 0.0
19/03:00pm 20.8 16.6 5.6 37 7.6 SW 17 30 9 16 1013.8 1013.1 0.0
19/02:30pm 20.0 16.5 5.3 38 7.3 SW 13 22 7 12 1014.0 1013.3 0.0
19/02:00pm 21.2 17.0 5.9 37 7.7 SW 17 28 9 15 1014.2 1013.5 0.0
19/01:30pm 19.3 15.1 5.7 41 6.8 SW 17 35 9 19 1014.4 1013.7 0.0
19/01:00pm 19.2 14.9 5.3 40 6.8 WSW 17 24 9 13 1014.6 1013.9 0.0
19/12:30pm 18.0 13.5 5.9 45 6.0 SW 19 28 10 15 1014.9 1014.2 0.0
19/12:00pm 18.7 14.5 5.9 43 6.4 SW 17 30 9 16 1014.8 1014.1 0.0
19/11:30am 17.7 13.4 6.9 49 5.4 SSW 19 30 10 16 1014.9 1014.2 0.0
19/11:00am 17.4 12.6 5.7 46 5.7 SSW 20 32 11 17 1014.6 1013.9 0.0
19/10:30am 17.2 12.8 6.7 50 5.2 SSW 19 24 10 13 1014.6 1013.9 0.0
19/10:00am 16.2 12.7 7.2 55 4.5 SW 15 26 8 14 1014.5 1013.8 0.0
19/09:30am 14.8 10.7 7.8 63 3.5 SW 19 28 10 15 1014.5 1013.8 0.0
19/09:00am 13.8 12.2 8.8 72 2.5 WSW 7 13 4 7 1014.2 1013.5 0.0
19/08:30am 12.2 11.0 9.4 83 1.4 W 6 9 3 5 1013.9 1013.2 0.0
19/08:00am 10.6 9.2 9.0 90 0.8 W 6 7 3 4 1013.7 1013.0 0.0
19/07:30am 10.1 9.8 8.5 90 0.8 CALM 0 0 0 0 1013.4 1012.7 0.0
19/07:00am 10.2 9.9 8.6 90 0.8 CALM 0 0 0 0 1013.2 1012.5 0.0
19/06:30am 10.4 10.2 9.2 92 0.6 CALM 0 0 0 0 1013.0 1012.4 0.0
19/06:00am 10.2 10.1 9.6 96 0.3 CALM 0 0 0 0 1012.8 1012.2 0.0
19/05:30am 9.5 9.3 9.0 97 0.2 CALM 0 4 0 2 1012.7 1012.1 0.0
19/05:00am 8.5 8.0 7.9 96 0.3 CALM 0 0 0 0 1012.6 1012.0 0.0
19/04:30am 8.2 7.6 7.6 96 0.3 CALM 0 0 0 0 1012.8 1012.2 0.0
19/04:00am 8.1 7.0 7.0 93 0.5 SW 2 7 1 4 1012.7 1012.1 0.0
19/03:30am 8.6 7.9 7.1 90 0.7 CALM 0 0 0 0 1012.7 1012.1 0.0
19/03:00am 9.2 8.2 7.2 87 1.0 WSW 2 7 1 4 1012.6 1012.0 0.0
19/02:30am 9.8 8.8 7.4 85 1.2 WSW 2 6 1 3 1012.8 1012.2 0.0
19/02:00am 10.2 8.5 7.4 83 1.3 SW 6 9 3 5 1012.9 1012.3 0.0
19/01:30am 10.4 8.4 7.1 80 1.6 SW 7 11 4 6 1013.0 1012.4 0.0
19/01:00am 10.5 8.9 6.3 75 2.0 SW 4 9 2 5 1012.7 1012.1 0.0
19/12:30am 11.7 9.7 7.0 73 2.3 SW 7 11 4 6 1012.6 1012.0 0.0
19/12:00am 12.3 9.9 7.0 70 2.6 SW 9 11 5 6 1012.6 1012.0 0.0
 
Date/Time
EDT
Temp
°C
App
Temp
°C
Dew
Point
°C
Rel
Hum
%
Delta-T
°C
Wind Press
QNH
hPa
Press
MSL
hPa
Rain since
9am
mm
Dir  Spd
km/h
Gust
km/h
Spd
kts
Gust
kts
18/11:30pm 13.0 10.3 7.5 69 2.7 SSW 11 19 6 10 1012.6 1012.0 0.0
18/11:00pm 13.8 10.9 8.2 69 2.8 SW 13 20 7 11 1012.4 1011.8 0.0
18/10:30pm 14.3 11.5 8.5 68 2.9 SSW 13 24 7 13 1012.2 1011.6 0.0
18/10:00pm 14.9 11.9 7.9 63 3.5 SSW 13 20 7 11 1012.0 1011.4 0.0
18/09:30pm 15.3 11.7 6.8 57 4.2 SW 15 24 8 13 1011.6 1011.0 0.0
18/09:00pm 16.0 11.6 6.4 53 4.7 SSW 19 28 10 15 1011.3 1010.6 0.0
18/08:30pm 16.6 12.4 7.3 54 4.7 SSW 19 28 10 15 1010.9 1010.2 0.0
18/08:00pm 17.7 13.9 7.4 51 5.2 SW 17 28 9 15 1010.4 1009.7 0.0
18/07:30pm 18.9 13.6 7.0 46 6.0 SW 24 35 13 19 1009.9 1009.2 0.0

Other formats

Comma delimited format used in spreadsheet applications
http://www.bom.gov.au/fwo/IDV60801/IDV60801.95827.axf

JavaScript Object Notation format (JSON) in row-major order
http://www.bom.gov.au/fwo/IDV60801/IDV60801.95827.json

Data quality

Most of these data are generated automatically and are frequently updated. Quality checks on data are not normally performed. It is possible for incorrect values to appear. Refer to information at About Latest Weather Observations and please check the disclaimer before using these data.